createdAt,value
2022-10-30T00:01:06.098Z,14.43
2022-10-30T00:03:32.860Z,16.15
2022-10-30T00:05:59.588Z,15.25
2022-10-30T00:08:26.397Z,19.10
2022-10-30T00:10:54.095Z,20.20
2022-10-30T00:13:21.781Z,14.75
2022-10-30T00:15:52.096Z,14.82
2022-10-30T00:18:20.543Z,19.80
2022-10-30T00:20:48.474Z,16.85
2022-10-30T00:23:15.639Z,16.35
2022-10-30T00:25:42.410Z,14.88
2022-10-30T00:28:09.205Z,17.45
2022-10-30T00:30:36.629Z,16.73
2022-10-30T00:33:04.580Z,20.63
2022-10-30T00:35:32.044Z,17.23
2022-10-30T00:38:01.360Z,16.83
2022-10-30T00:40:28.778Z,19.60
2022-10-30T00:42:55.596Z,20.95
2022-10-30T00:45:22.355Z,15.07
2022-10-30T00:48:02.543Z,19.02
2022-10-30T00:50:36.929Z,17.25
2022-10-30T00:53:18.463Z,16.50
2022-10-30T00:55:56.022Z,15.23
2022-10-30T00:58:36.258Z,13.88
2022-10-30T01:01:11.519Z,19.23
2022-10-30T01:03:40.855Z,17.08
2022-10-30T01:06:13.375Z,19.52
2022-10-30T01:08:41.033Z,20.33
2022-10-30T01:11:09.494Z,13.27
2022-10-30T01:13:39.816Z,20.58
2022-10-30T01:16:41.499Z,24.92
2022-10-30T01:19:44.405Z,22.83
2022-10-30T01:22:35.925Z,16.75
2022-10-30T01:25:32.299Z,17.15
2022-10-30T01:28:55.449Z,16.23
2022-10-30T01:31:37.391Z,16.38
2022-10-30T01:34:23.081Z,16.52
2022-10-30T01:37:03.773Z,17.08
2022-10-30T01:39:39.752Z,20.05
2022-10-30T01:42:47.731Z,15.75
2022-10-30T01:45:24.089Z,21.10
2022-10-30T01:48:15.308Z,19.35
2022-10-30T01:51:19.862Z,15.85
2022-10-30T01:53:56.178Z,14.00
2022-10-30T01:56:59.184Z,15.82
2022-10-30T01:59:48.019Z,15.52
2022-10-30T02:02:14.985Z,17.05
2022-10-30T02:04:43.737Z,20.17
2022-10-30T02:07:12.053Z,16.40
2022-10-30T02:09:45.550Z,26.42
2022-10-30T02:12:15.515Z,17.67
2022-10-30T02:14:49.863Z,15.57
2022-10-30T02:17:17.804Z,18.02
2022-10-30T02:19:44.908Z,17.58
2022-10-30T02:22:12.387Z,22.23
2022-10-30T02:24:39.326Z,20.52
2022-10-30T02:27:07.145Z,15.02
2022-10-30T02:29:33.901Z,15.85
2022-10-30T02:32:00.664Z,19.42
2022-10-30T02:34:27.653Z,23.77
2022-10-30T02:36:54.451Z,20.05
2022-10-30T02:39:21.505Z,16.10
2022-10-30T02:41:49.007Z,13.43
2022-10-30T02:44:15.945Z,17.08
2022-10-30T02:46:42.785Z,16.33
2022-10-30T02:49:10.128Z,17.73
2022-10-30T02:51:36.984Z,19.20
2022-10-30T02:54:03.970Z,19.33
2022-10-30T02:56:31.279Z,13.63
2022-10-30T02:58:59.701Z,18.95
2022-10-30T03:01:26.560Z,18.08
2022-10-30T03:03:56.530Z,23.00
2022-10-30T03:06:23.374Z,16.23
2022-10-30T03:08:51.023Z,13.98
2022-10-30T03:11:20.042Z,16.60
2022-10-30T03:13:48.568Z,15.00
2022-10-30T03:16:20.956Z,17.67
2022-10-30T03:21:20.112Z,17.10
2022-10-30T03:23:47.046Z,18.02
2022-10-30T03:26:13.947Z,18.60
2022-10-30T03:28:49.759Z,19.40
2022-10-30T03:31:19.164Z,15.02
2022-10-30T03:33:48.340Z,18.38
2022-10-30T03:36:15.860Z,17.38
2022-10-30T03:38:43.432Z,15.68
2022-10-30T03:41:13.778Z,16.60
2022-10-30T03:43:40.635Z,19.25
2022-10-30T03:46:10.444Z,18.35
2022-10-30T03:48:38.537Z,18.25
2022-10-30T03:51:05.749Z,17.52
2022-10-30T03:53:34.958Z,14.27
2022-10-30T03:56:04.855Z,18.95
2022-10-30T03:58:41.885Z,16.13
2022-10-30T04:01:11.752Z,17.67
2022-10-30T04:03:42.434Z,20.20
2022-10-30T04:06:11.680Z,19.98
2022-10-30T04:08:38.578Z,20.50
2022-10-30T04:11:05.646Z,17.05
2022-10-30T04:13:32.736Z,19.95
2022-10-30T04:15:59.448Z,22.83
2022-10-30T04:18:26.740Z,17.83
2022-10-30T04:20:55.715Z,17.73
2022-10-30T04:23:23.244Z,20.23
2022-10-30T04:25:50.281Z,15.88
2022-10-30T04:28:18.516Z,16.42
2022-10-30T04:30:47.442Z,17.95
2022-10-30T04:33:16.541Z,16.20
2022-10-30T04:35:43.637Z,22.42
2022-10-30T04:38:16.612Z,18.70
2022-10-30T04:40:44.484Z,21.30
2022-10-30T04:43:14.445Z,15.55
2022-10-30T04:45:42.998Z,15.80
2022-10-30T04:48:18.961Z,21.67
2022-10-30T04:50:47.458Z,13.38
2022-10-30T04:53:24.342Z,17.00
2022-10-30T04:55:56.990Z,20.13
2022-10-30T04:58:24.023Z,19.02
2022-10-30T05:01:05.168Z,18.85
2022-10-30T05:03:33.454Z,18.45
2022-10-30T05:06:24.876Z,21.30
2022-10-30T05:08:51.811Z,19.25
2022-10-30T05:11:29.561Z,15.73
2022-10-30T05:13:56.560Z,22.75
2022-10-30T05:16:23.423Z,22.60
2022-10-30T05:18:51.717Z,18.45
2022-10-30T05:21:18.480Z,14.23
2022-10-30T05:23:46.563Z,22.80
2022-10-30T05:26:13.387Z,21.42
2022-10-30T05:28:41.525Z,14.60
2022-10-30T05:31:08.891Z,22.80
2022-10-30T05:34:04.594Z,18.20
2022-10-30T05:36:34.297Z,18.55
2022-10-30T05:39:02.951Z,19.27
2022-10-30T05:41:34.365Z,21.13
2022-10-30T05:44:02.394Z,21.02
2022-10-30T05:46:29.443Z,20.73
2022-10-30T05:49:05.655Z,19.58
2022-10-30T05:51:36.613Z,14.65
2022-10-30T05:54:06.771Z,17.30
2022-10-30T05:56:36.988Z,26.23
2022-10-30T05:59:04.471Z,17.95
2022-10-30T06:01:31.335Z,20.88
2022-10-30T06:04:00.861Z,19.42
2022-10-30T06:06:27.690Z,16.92
2022-10-30T06:08:55.216Z,22.45
2022-10-30T06:11:42.137Z,20.00
2022-10-30T06:14:10.677Z,20.27
2022-10-30T06:16:43.034Z,21.10
2022-10-30T06:19:42.068Z,23.88
2022-10-30T06:22:23.933Z,17.92
2022-10-30T06:24:58.009Z,16.33
2022-10-30T06:27:44.975Z,19.23
2022-10-30T06:30:12.769Z,19.10
2022-10-30T06:32:39.736Z,18.23
2022-10-30T06:35:07.112Z,21.00
2022-10-30T06:37:34.547Z,20.60
2022-10-30T06:40:09.910Z,19.73
2022-10-30T06:42:55.902Z,18.90
2022-10-30T06:45:29.938Z,17.08
2022-10-30T06:47:57.184Z,18.48
2022-10-30T06:50:24.515Z,25.48
2022-10-30T06:52:51.776Z,20.98
2022-10-30T06:55:18.933Z,21.20
2022-10-30T06:58:11.592Z,20.35
2022-10-30T07:01:01.395Z,21.80
2022-10-30T07:03:46.654Z,20.60
2022-10-30T07:06:13.550Z,23.50
2022-10-30T07:08:40.358Z,22.92
2022-10-30T07:11:07.248Z,23.45
2022-10-30T07:13:43.769Z,27.58
2022-10-30T07:16:36.928Z,24.52
2022-10-30T07:19:08.074Z,22.92
2022-10-30T07:21:35.004Z,21.75
2022-10-30T07:24:05.921Z,18.15
2022-10-30T07:26:38.047Z,21.85
2022-10-30T07:29:25.206Z,23.45
2022-10-30T07:32:30.357Z,19.42
2022-10-30T07:35:14.905Z,24.02
2022-10-30T07:38:07.645Z,22.15
2022-10-30T07:40:53.456Z,20.45
2022-10-30T07:43:38.500Z,26.08
2022-10-30T07:46:34.097Z,18.80
2022-10-30T07:49:18.380Z,22.75
2022-10-30T07:51:57.507Z,23.40
2022-10-30T07:54:24.641Z,23.10
2022-10-30T07:56:52.377Z,23.95
2022-10-30T07:59:44.877Z,23.95
2022-10-30T08:02:20.676Z,26.20
2022-10-30T08:05:08.378Z,24.35
2022-10-30T08:07:55.376Z,22.10
2022-10-30T08:10:22.476Z,29.00
2022-10-30T08:12:49.456Z,20.23
2022-10-30T08:15:16.469Z,26.25
2022-10-30T08:17:46.349Z,18.90
2022-10-30T08:20:16.221Z,25.08
2022-10-30T08:22:52.549Z,25.13
2022-10-30T08:25:29.528Z,22.30
2022-10-30T08:28:03.015Z,22.13
2022-10-30T08:33:08.153Z,25.48
2022-10-30T08:36:00.812Z,23.10
2022-10-30T08:38:29.427Z,26.95
2022-10-30T08:41:22.236Z,24.55
2022-10-30T08:43:51.887Z,23.05
2022-10-30T08:46:18.781Z,21.17
2022-10-30T08:48:46.239Z,22.05
2022-10-30T08:51:13.208Z,24.48
2022-10-30T08:53:44.686Z,21.10
2022-10-30T08:56:14.367Z,20.30
2022-10-30T08:58:53.464Z,26.15
2022-10-30T09:01:20.527Z,21.48
2022-10-30T09:04:16.298Z,23.33
2022-10-30T09:07:02.005Z,21.42
2022-10-30T09:10:07.517Z,24.83
2022-10-30T09:12:36.580Z,21.90
2022-10-30T09:15:04.418Z,22.27
2022-10-30T09:17:39.565Z,20.83
2022-10-30T09:20:06.676Z,25.30
2022-10-30T09:22:41.651Z,26.33
2022-10-30T09:25:09.253Z,22.50
2022-10-30T09:28:02.266Z,20.63
2022-10-30T09:30:42.312Z,24.70
2022-10-30T09:33:12.103Z,25.15
2022-10-30T09:35:58.756Z,22.90
2022-10-30T09:38:25.529Z,21.63
2022-10-30T09:41:33.630Z,20.10
2022-10-30T09:45:15.085Z,19.75
2022-10-30T09:48:10.735Z,22.15
2022-10-30T09:51:39.047Z,24.45
2022-10-30T09:54:37.085Z,25.80
2022-10-30T09:57:19.301Z,20.85
2022-10-30T10:00:10.579Z,24.33
2022-10-30T10:03:38.603Z,25.88
2022-10-30T10:06:25.990Z,23.45
2022-10-30T10:09:19.923Z,28.00
2022-10-30T10:12:21.250Z,26.83
2022-10-30T10:14:49.306Z,20.45
2022-10-30T10:17:31.324Z,19.30
2022-10-30T10:20:00.887Z,18.33
2022-10-30T10:22:44.012Z,25.70
2022-10-30T10:25:16.988Z,25.00
2022-10-30T10:28:23.311Z,26.00
2022-10-30T10:31:07.878Z,20.38
2022-10-30T10:34:02.852Z,20.77
2022-10-30T10:36:45.908Z,25.65
2022-10-30T10:39:50.610Z,20.10
2022-10-30T10:42:35.863Z,22.15
2022-10-30T10:45:58.535Z,23.88
2022-10-30T10:48:50.294Z,23.73
2022-10-30T10:51:29.258Z,19.92
2022-10-30T10:54:02.345Z,35.20
2022-10-30T10:56:39.808Z,24.35
2022-10-30T10:59:34.584Z,20.50
2022-10-30T11:02:40.494Z,20.08
2022-10-30T11:05:36.271Z,20.77
2022-10-30T11:08:22.717Z,22.15
2022-10-30T11:10:59.796Z,20.05
2022-10-30T11:13:35.943Z,19.95
2022-10-30T11:16:38.565Z,20.70
2022-10-30T11:19:09.687Z,22.35
2022-10-30T11:21:45.608Z,20.58
2022-10-30T11:24:30.513Z,24.17
2022-10-30T11:27:17.615Z,21.25
2022-10-30T11:30:06.055Z,17.95
2022-10-30T11:32:35.004Z,21.92
2022-10-30T11:35:07.918Z,24.25
2022-10-30T11:37:41.362Z,20.83
2022-10-30T11:40:11.306Z,19.33
2022-10-30T11:43:05.036Z,20.92
2022-10-30T11:45:39.530Z,22.70
2022-10-30T11:48:28.452Z,19.33
2022-10-30T11:51:03.713Z,19.88
2022-10-30T11:53:38.588Z,20.33
2022-10-30T11:56:20.870Z,20.60
2022-10-30T11:58:56.044Z,24.33
2022-10-30T12:01:36.741Z,25.58
2022-10-30T12:04:22.222Z,24.50
2022-10-30T12:07:07.797Z,20.60
2022-10-30T12:09:44.354Z,19.75
2022-10-30T12:12:27.910Z,25.00
2022-10-30T12:14:55.456Z,23.92
2022-10-30T12:17:23.140Z,20.58
2022-10-30T12:19:57.379Z,22.85
2022-10-30T12:22:31.932Z,18.92
2022-10-30T12:25:21.020Z,15.80
2022-10-30T12:27:48.337Z,18.55
2022-10-30T12:30:20.736Z,19.13
2022-10-30T12:33:15.473Z,19.95
2022-10-30T12:35:49.075Z,18.63
2022-10-30T12:38:27.258Z,18.77
2022-10-30T12:41:26.032Z,22.70
2022-10-30T12:44:15.307Z,17.08
2022-10-30T12:46:56.669Z,13.95
2022-10-30T12:49:50.381Z,15.38
2022-10-30T12:52:31.170Z,17.40
2022-10-30T12:55:13.365Z,16.73
2022-10-30T12:58:29.485Z,16.42
2022-10-30T13:01:12.397Z,16.95
2022-10-30T13:03:53.233Z,23.42
2022-10-30T13:06:28.630Z,17.70
2022-10-30T13:09:42.052Z,19.77
2022-10-30T13:12:17.066Z,16.33
2022-10-30T13:15:06.449Z,16.45
2022-10-30T13:17:33.258Z,14.75
2022-10-30T13:20:00.293Z,15.65
2022-10-30T13:23:21.044Z,20.15
2022-10-30T13:26:07.983Z,15.32
2022-10-30T13:29:22.050Z,15.32
2022-10-30T13:32:30.872Z,16.15
2022-10-30T13:35:25.064Z,12.38
2022-10-30T13:38:02.370Z,16.30
2022-10-30T13:40:29.623Z,15.73
2022-10-30T13:43:22.958Z,13.43
2022-10-30T13:46:21.345Z,14.50
2022-10-30T13:49:17.852Z,16.77
2022-10-30T13:52:14.362Z,17.25
2022-10-30T13:55:02.437Z,18.85
2022-10-30T13:57:49.532Z,15.48
2022-10-30T14:00:50.700Z,14.00
2022-10-30T14:03:51.178Z,14.05
2022-10-30T14:06:52.993Z,16.63
2022-10-30T14:09:19.658Z,14.15
2022-10-30T14:11:46.571Z,14.00
2022-10-30T14:14:13.203Z,12.82
2022-10-30T14:16:45.468Z,15.55
2022-10-30T14:19:13.902Z,19.73
2022-10-30T14:21:55.223Z,13.85
2022-10-30T14:24:30.578Z,16.10
2022-10-30T14:27:03.525Z,16.63
2022-10-30T14:29:34.720Z,17.52
2022-10-30T14:32:22.420Z,15.60
2022-10-30T14:34:52.408Z,15.45
2022-10-30T14:37:39.051Z,12.55
2022-10-30T14:40:53.755Z,12.55
2022-10-30T14:43:59.085Z,18.33
2022-10-30T14:46:44.212Z,14.15
2022-10-30T14:49:43.506Z,18.83
2022-10-30T14:52:23.064Z,18.98
2022-10-30T14:55:15.574Z,15.55
2022-10-30T14:58:05.691Z,21.38
2022-10-30T15:00:35.450Z,16.55
2022-10-30T15:03:43.631Z,15.95
2022-10-30T15:06:40.603Z,19.70
2022-10-30T15:12:46.987Z,16.25
2022-10-30T15:15:18.721Z,13.73
2022-10-30T15:17:55.030Z,15.60
2022-10-30T15:20:25.654Z,17.55
2022-10-30T15:23:07.478Z,15.73
2022-10-30T15:25:47.616Z,10.93
2022-10-30T15:28:22.511Z,12.73
2022-10-30T15:31:05.963Z,12.90
2022-10-30T15:33:37.813Z,15.07
2022-10-30T15:36:06.062Z,12.48
2022-10-30T15:38:32.868Z,16.38
2022-10-30T15:41:03.196Z,11.98
2022-10-30T15:43:35.528Z,10.25
2022-10-30T15:46:10.183Z,12.73
2022-10-30T15:48:45.635Z,11.10
2022-10-30T15:51:18.934Z,14.00
2022-10-30T15:53:52.706Z,14.27
2022-10-30T15:57:18.035Z,14.98
2022-10-30T15:59:35.227Z,14.35
2022-10-30T16:02:02.300Z,15.13
2022-10-30T16:04:36.532Z,17.63
2022-10-30T16:07:21.983Z,15.75
2022-10-30T16:09:59.903Z,20.48
2022-10-30T16:12:30.468Z,19.27
2022-10-30T16:15:03.663Z,14.02
2022-10-30T16:17:30.465Z,17.27
2022-10-30T16:20:03.415Z,9.52
2022-10-30T16:22:38.027Z,16.75
2022-10-30T16:25:12.874Z,19.30
2022-10-30T16:27:45.548Z,17.80
2022-10-30T16:30:17.047Z,15.30
2022-10-30T16:32:52.787Z,12.57
2022-10-30T16:35:22.723Z,14.80
2022-10-30T16:37:50.766Z,15.88
2022-10-30T16:40:25.902Z,14.70
2022-10-30T16:43:01.598Z,12.90
2022-10-30T16:45:29.090Z,14.95
2022-10-30T16:48:09.208Z,17.05
2022-10-30T16:50:38.670Z,14.00
2022-10-30T16:53:11.314Z,18.05
2022-10-30T16:55:38.709Z,15.13
2022-10-30T16:58:05.624Z,7.13
2022-10-30T17:00:36.368Z,16.50
2022-10-30T17:03:11.579Z,8.38
2022-10-30T17:05:41.292Z,11.77
2022-10-30T17:08:17.168Z,13.60
2022-10-30T17:11:03.450Z,12.95
2022-10-30T17:13:38.414Z,10.93
2022-10-30T17:16:30.186Z,11.68
2022-10-30T17:19:01.042Z,9.32
2022-10-30T17:21:39.452Z,8.30
2022-10-30T17:24:19.113Z,11.50
2022-10-30T17:26:57.277Z,10.27
2022-10-30T17:32:27.040Z,6.22
2022-10-30T17:35:19.329Z,8.95
2022-10-30T17:37:46.468Z,13.98
2022-10-30T17:40:14.479Z,13.20
2022-10-30T17:42:41.854Z,13.07
2022-10-30T17:45:14.372Z,13.98
2022-10-30T17:47:41.195Z,10.33
2022-10-30T17:50:08.364Z,12.13
2022-10-30T17:52:35.498Z,10.48
2022-10-30T17:55:08.045Z,12.55
2022-10-30T17:57:34.795Z,10.55
2022-10-30T18:00:01.551Z,9.95
2022-10-30T18:02:41.296Z,14.25
2022-10-30T18:05:22.520Z,12.10
2022-10-30T18:10:16.979Z,10.77
2022-10-30T18:12:44.995Z,12.45
2022-10-30T18:15:39.253Z,11.55
2022-10-30T18:18:06.707Z,15.60
2022-10-30T18:20:34.005Z,12.93
2022-10-30T18:23:01.362Z,14.57
2022-10-30T18:25:35.023Z,11.57
2022-10-30T18:28:03.042Z,16.27
2022-10-30T18:30:30.446Z,12.73
2022-10-30T18:32:59.461Z,11.38
2022-10-30T18:35:36.154Z,11.43
2022-10-30T18:38:04.258Z,10.50
2022-10-30T18:40:32.701Z,11.57
2022-10-30T18:43:00.447Z,13.07
2022-10-30T18:45:33.703Z,11.75
2022-10-30T18:48:01.260Z,11.38
2022-10-30T18:50:30.450Z,12.15
2022-10-30T18:52:59.123Z,12.50
2022-10-30T18:55:33.833Z,15.00
2022-10-30T18:58:01.828Z,11.25
2022-10-30T19:00:39.656Z,16.00
2022-10-30T19:03:17.101Z,17.75
2022-10-30T19:05:50.241Z,11.90
2022-10-30T19:08:17.333Z,16.08
2022-10-30T19:10:47.298Z,15.48
2022-10-30T19:13:16.965Z,14.52
2022-10-30T19:15:48.595Z,16.95
2022-10-30T19:18:16.063Z,19.48
2022-10-30T19:21:03.172Z,16.90
2022-10-30T19:23:30.215Z,18.10
2022-10-30T19:25:57.115Z,24.80
2022-10-30T19:28:24.070Z,19.00
2022-10-30T19:30:50.788Z,16.52
2022-10-30T19:33:20.177Z,12.35
2022-10-30T19:36:26.974Z,14.77
2022-10-30T19:38:54.234Z,16.38
2022-10-30T19:41:21.218Z,18.30
2022-10-30T19:43:48.117Z,14.73
2022-10-30T19:46:15.361Z,15.27
2022-10-30T19:48:59.295Z,16.38
2022-10-30T19:51:28.335Z,14.13
2022-10-30T19:53:55.307Z,14.50
2022-10-30T19:56:22.568Z,14.73
2022-10-30T19:58:49.634Z,17.63
2022-10-30T20:01:17.096Z,13.07
2022-10-30T20:03:44.208Z,16.63
2022-10-30T20:06:13.377Z,12.60
2022-10-30T20:08:40.399Z,14.52
2022-10-30T20:11:07.151Z,12.02
2022-10-30T20:13:34.164Z,16.10
2022-10-30T20:16:05.006Z,16.85
2022-10-30T20:18:35.621Z,16.38
2022-10-30T20:21:08.414Z,15.57
2022-10-30T20:23:35.656Z,16.70
2022-10-30T20:26:07.474Z,13.82
2022-10-30T20:28:42.794Z,15.50
2022-10-30T20:31:12.839Z,14.73
2022-10-30T20:33:39.768Z,18.83
2022-10-30T20:36:06.884Z,12.38
2022-10-30T20:38:34.855Z,18.58
2022-10-30T20:41:04.983Z,16.88
2022-10-30T20:43:39.338Z,17.73
2022-10-30T20:46:09.591Z,13.73
2022-10-30T20:48:37.922Z,17.40
2022-10-30T20:51:06.686Z,19.70
2022-10-30T20:53:34.127Z,19.75
2022-10-30T20:56:01.007Z,15.07
2022-10-30T20:58:28.038Z,12.63
2022-10-30T21:00:58.287Z,15.65
2022-10-30T21:03:27.603Z,17.05
2022-10-30T21:06:01.102Z,16.77
2022-10-30T21:08:31.599Z,13.88
2022-10-30T21:11:03.662Z,13.98
2022-10-30T21:13:32.778Z,15.57
2022-10-30T21:16:07.048Z,16.60
2022-10-30T21:18:33.882Z,16.60
2022-10-30T21:21:08.118Z,17.10
2022-10-30T21:23:35.025Z,21.63
2022-10-30T21:26:06.995Z,16.10
2022-10-30T21:31:07.177Z,16.30
2022-10-30T21:33:36.335Z,19.90
2022-10-30T21:36:12.364Z,20.02
2022-10-30T21:38:42.500Z,19.10
2022-10-30T21:41:16.515Z,18.88
2022-10-30T21:43:43.871Z,17.52
2022-10-30T21:46:12.878Z,18.83
2022-10-30T21:48:40.036Z,19.25
2022-10-30T21:51:15.976Z,14.93
2022-10-30T21:53:44.502Z,12.63
2022-10-30T21:56:15.851Z,20.20
2022-10-30T21:58:42.997Z,17.73
2022-10-30T22:01:26.693Z,20.15
2022-10-30T22:03:53.640Z,17.20
2022-10-30T22:06:22.599Z,19.25
2022-10-30T22:08:53.333Z,16.25
2022-10-30T22:11:22.382Z,19.08
2022-10-30T22:14:04.247Z,16.20
2022-10-30T22:16:34.484Z,15.43
2022-10-30T22:19:01.981Z,19.60
2022-10-30T22:21:29.700Z,16.27
2022-10-30T22:23:58.449Z,20.55
2022-10-30T22:26:25.346Z,24.35
2022-10-30T22:28:57.948Z,16.67
2022-10-30T22:31:27.370Z,19.17
2022-10-30T22:33:54.537Z,19.92
2022-10-30T22:36:32.611Z,18.33
2022-10-30T22:39:07.901Z,20.20
2022-10-30T22:41:37.591Z,20.85
2022-10-30T22:44:12.717Z,19.63
2022-10-30T22:46:39.954Z,22.83
2022-10-30T22:49:07.888Z,18.25
2022-10-30T22:51:37.757Z,18.45
2022-10-30T22:54:12.315Z,19.15
2022-10-30T22:56:40.698Z,22.45
2022-10-30T22:59:12.168Z,18.73
2022-10-30T23:01:41.409Z,19.45
2022-10-30T23:04:11.640Z,24.38
2022-10-30T23:06:38.616Z,18.67
2022-10-30T23:09:09.651Z,20.95
2022-10-30T23:11:36.437Z,23.17
2022-10-30T23:14:03.701Z,23.35
2022-10-30T23:16:30.487Z,23.52
2022-10-30T23:18:59.948Z,22.17
2022-10-30T23:21:30.342Z,20.75
2022-10-30T23:23:58.001Z,25.80
2022-10-30T23:26:29.742Z,23.08
2022-10-30T23:28:59.122Z,22.65
2022-10-30T23:31:27.399Z,26.52
2022-10-30T23:34:02.125Z,19.80
2022-10-30T23:36:29.658Z,26.40
2022-10-30T23:39:02.895Z,25.15
2022-10-30T23:41:34.275Z,20.42
2022-10-30T23:44:05.442Z,26.77
2022-10-30T23:46:34.233Z,23.58
2022-10-30T23:49:02.264Z,27.63
2022-10-30T23:51:29.190Z,22.80
2022-10-30T23:53:56.373Z,25.05
2022-10-30T23:56:23.488Z,22.60
2022-10-30T23:58:52.116Z,25.83
